Time;durP1;ratioP1;P1;durP2;ratioP2;P2;SDS_P1;SDS_P2;PMS_P1;PMS_P2;Temp;Humidity;BMP_temperature;BMP_pressure;BME280_temperature;BME280_humidity;BME280_pressure;Samples;Min_cycle;Max_cycle;Signal;HPM_P1;HPM_P2
2022/08/13 00:00:59;;;;;;;15.13;13.85;;;;;;;22.77;59.71;100459.13;6036186;23;97773;-79
2022/08/13 00:03:26;;;;;;;15.73;14.55;;;;;;;22.77;59.77;100461.78;5989331;23;96937;-79
2022/08/13 00:05:52;;;;;;;15.27;14.18;;;;;;;22.68;59.92;100443.84;6011925;23;97007;-80
2022/08/13 00:08:22;;;;;;;14.80;13.80;;;;;;;22.68;60.11;100444.69;6010609;23;100757;-80
2022/08/13 00:10:48;;;;;;;15.32;14.15;;;;;;;22.55;60.21;100417.25;6011702;23;100925;-80
2022/08/13 00:13:16;;;;;;;15.63;14.23;;;;;;;22.67;60.21;100442.16;6011128;23;96644;-79
2022/08/13 00:15:43;;;;;;;15.43;14.13;;;;;;;22.59;60.61;100448.97;6012953;23;96850;-79
2022/08/13 00:18:29;;;;;;;16.50;15.23;;;;;;;22.62;60.76;100452.38;6010276;23;101702;-79
2022/08/13 00:20:57;;;;;;;15.70;14.38;;;;;;;22.56;60.92;100438.50;5988502;23;101590;-79
2022/08/13 00:23:26;;;;;;;15.55;14.25;;;;;;;22.55;61.15;100454.72;5987182;23;97189;-80
2022/08/13 00:25:55;;;;;;;15.63;14.10;;;;;;;22.55;60.99;100455.56;6010972;23;97263;-80
2022/08/13 00:28:23;;;;;;;15.50;14.38;;;;;;;22.44;61.32;100438.69;5986369;23;101870;-80
2022/08/13 00:30:49;;;;;;;15.77;14.45;;;;;;;22.41;61.31;100441.63;6031413;23;100942;-79
2022/08/13 00:33:18;;;;;;;16.00;14.70;;;;;;;22.42;61.29;100443.31;6016331;23;96617;-79
2022/08/13 00:35:47;;;;;;;15.48;14.38;;;;;;;22.35;61.61;100443.81;6017825;23;97145;-79
2022/08/13 00:38:15;;;;;;;15.80;14.48;;;;;;;22.41;61.41;100434.44;6063582;23;97669;-80
2022/08/13 00:40:46;;;;;;;16.13;14.98;;;;;;;22.39;61.33;100439.06;6039048;23;101146;-80
2022/08/13 00:43:12;;;;;;;15.52;14.43;;;;;;;22.32;61.55;100432.53;6063137;23;96959;-80
2022/08/13 00:45:38;;;;;;;16.52;15.32;;;;;;;22.29;61.66;100438.13;6040752;23;97113;-80
2022/08/13 00:50:50;;;;;;;15.60;14.30;;;;;;;22.24;61.39;100434.97;6069368;23;97973;-80
2022/08/13 00:53:18;;;;;;;16.50;15.10;;;;;;;22.26;61.44;100433.88;6040061;23;96776;-80
2022/08/13 00:55:51;;;;;;;15.18;14.10;;;;;;;22.20;61.44;100436.19;6013262;23;96937;-79
2022/08/13 00:58:19;;;;;;;16.42;14.82;;;;;;;22.09;61.56;100439.69;6014837;23;101431;-80
2022/08/13 01:00:50;;;;;;;15.25;14.05;;;;;;;22.12;61.38;100439.44;6039973;23;100769;-80
2022/08/13 01:03:17;;;;;;;15.50;14.13;;;;;;;22.07;61.18;100441.63;6015856;23;96694;-80
2022/08/13 01:05:44;;;;;;;15.45;14.38;;;;;;;22.07;60.99;100444.31;6040836;23;96951;-80
2022/08/13 01:08:10;;;;;;;16.05;14.65;;;;;;;21.98;61.12;100426.34;6038189;23;101424;-80
2022/08/13 01:10:37;;;;;;;15.45;14.35;;;;;;;22.07;60.98;100446.97;6040147;23;98322;-80
2022/08/13 01:13:03;;;;;;;15.38;14.23;;;;;;;22.03;61.04;100435.69;6015048;23;97234;-80
2022/08/13 01:15:29;;;;;;;15.18;13.95;;;;;;;22.05;60.99;100432.88;6065764;23;97047;-79
2022/08/13 01:17:57;;;;;;;16.33;14.98;;;;;;;21.99;61.25;100428.03;6064857;23;97392;-79
2022/08/13 01:20:26;;;;;;;15.02;13.82;;;;;;;22.04;60.95;100425.84;6039995;23;101697;-79
2022/08/13 01:22:52;;;;;;;15.40;14.20;;;;;;;22.08;60.62;100422.81;6041477;23;96656;-79
2022/08/13 01:25:21;;;;;;;15.73;14.57;;;;;;;22.10;60.55;100428.00;6039293;23;97497;-80
2022/08/13 01:27:48;;;;;;;16.40;15.20;;;;;;;21.98;60.65;100411.16;6015728;23;102144;-79
2022/08/13 01:30:16;;;;;;;15.82;14.68;;;;;;;22.02;60.48;100401.94;6025209;23;97771;-79
2022/08/13 01:32:41;;;;;;;16.10;14.63;;;;;;;22.07;60.53;100422.91;6012375;23;96668;-79
2022/08/13 01:35:08;;;;;;;15.50;14.20;;;;;;;22.03;60.65;100405.44;6012489;23;96674;-80
2022/08/13 01:37:34;;;;;;;15.52;14.38;;;;;;;22.01;60.83;100400.19;5989076;23;101224;-79
2022/08/13 01:40:00;;;;;;;15.10;14.10;;;;;;;22.15;60.56;100423.16;6012210;23;100880;-80
2022/08/13 01:42:26;;;;;;;16.52;14.98;;;;;;;22.16;60.59;100416.81;6013089;23;96689;-81
2022/08/13 01:44:51;;;;;;;15.38;14.27;;;;;;;22.17;60.43;100418.56;5989389;23;96654;-79
2022/08/13 01:52:48;;;;;;;16.25;14.82;;;;;;;22.10;61.09;100406.63;6040612;23;97014;-79
2022/08/13 01:55:13;;;;;;;15.65;14.52;;;;;;;22.16;60.81;100408.81;5987242;23;97056;-79
2022/08/13 01:57:44;;;;;;;15.65;14.45;;;;;;;22.21;60.71;100406.66;6035219;23;98429;-79
2022/08/13 02:00:15;;;;;;;15.27;14.10;;;;;;;22.11;61.45;100400.34;6035521;23;97952;-79
2022/08/13 02:02:43;;;;;;;;;;;;;;;22.09;61.81;100411.13;6011379;23;96572;-78
2022/08/13 02:05:10;;;;;;;15.95;14.55;;;;;;;22.02;61.56;100385.00;6011381;23;96937;-78
2022/08/13 02:07:38;;;;;;;15.95;14.65;;;;;;;22.14;61.63;100400.09;6010186;23;101338;-79
2022/08/13 02:10:04;;;;;;;16.20;14.90;;;;;;;22.07;62.04;100396.19;5986923;23;100975;-79
2022/08/13 02:12:30;;;;;;;15.80;14.70;;;;;;;21.98;62.15;100387.09;6010997;23;96843;-79
2022/08/13 02:15:02;;;;;;;16.00;14.80;;;;;;;22.10;62.20;100412.81;6012655;23;97080;-79
2022/08/13 02:17:27;;;;;;;16.33;15.07;;;;;;;22.02;62.22;100396.56;6038050;23;97910;-79
2022/08/13 02:19:56;;;;;;;17.05;15.45;;;;;;;22.07;62.47;100412.22;5989246;23;101509;-79
2022/08/13 02:22:23;;;;;;;16.35;15.05;;;;;;;22.13;62.35;100417.91;6034778;23;96617;-79
2022/08/13 02:24:53;;;;;;;17.38;15.98;;;;;;;22.04;63.71;100421.34;6012291;23;97074;-79
2022/08/13 02:27:21;;;;;;;16.70;15.50;;;;;;;21.98;64.74;100432.53;6011058;23;99270;-79
2022/08/13 02:29:53;;;;;;;17.30;15.90;;;;;;;21.87;65.77;100421.84;6043258;23;97403;-79
2022/08/13 02:32:20;;;;;;;15.57;14.38;;;;;;;21.88;65.57;100420.88;6039943;23;96746;-79
2022/08/13 02:34:49;;;;;;;15.70;14.55;;;;;;;21.85;66.26;100418.47;6017953;23;96829;-79
2022/08/13 02:37:15;;;;;;;15.98;14.73;;;;;;;21.75;65.96;100401.44;6040906;23;97854;-79
2022/08/13 02:39:42;;;;;;;15.52;14.43;;;;;;;21.72;66.32;100405.22;6040931;23;97760;-79
2022/08/13 02:42:09;;;;;;;16.60;15.40;;;;;;;21.76;66.18;100409.34;6040727;23;97234;-79
2022/08/13 02:44:34;;;;;;;16.58;15.15;;;;;;;21.66;66.44;100393.19;6042453;23;96898;-79
2022/08/13 02:47:01;;;;;;;15.77;14.57;;;;;;;21.62;67.40;100409.59;6062686;23;97969;-79
2022/08/13 02:49:26;;;;;;;16.35;15.15;;;;;;;21.64;66.86;100391.59;6040717;23;101041;-79
2022/08/13 02:51:52;;;;;;;15.93;14.73;;;;;;;21.53;67.95;100397.81;6041790;23;96979;-79
2022/08/13 02:54:20;;;;;;;16.23;15.13;;;;;;;21.54;67.91;100401.34;6040725;23;97256;-79
2022/08/13 02:56:46;;;;;;;16.85;15.55;;;;;;;21.51;67.72;100375.72;6039846;23;101274;-79
2022/08/13 02:59:13;;;;;;;17.17;15.88;;;;;;;21.50;67.64;100379.38;6016275;23;101542;-79
2022/08/13 03:01:39;;;;;;;16.83;15.52;;;;;;;21.54;67.89;100388.81;6015529;23;97377;-80
2022/08/13 03:04:06;;;;;;;16.45;15.13;;;;;;;21.46;68.21;100372.53;6015671;23;96845;-79
2022/08/13 03:06:32;;;;;;;16.52;15.18;;;;;;;21.47;68.28;100382.28;6040763;23;97598;-79
2022/08/13 03:09:01;;;;;;;17.63;16.20;;;;;;;21.50;68.52;100398.06;6040419;23;101299;-79
2022/08/13 03:11:28;;;;;;;17.40;15.95;;;;;;;21.43;68.84;100391.47;6040972;23;96765;-79
2022/08/13 03:14:02;;;;;;;17.70;16.25;;;;;;;21.55;68.79;100389.66;6016903;23;96721;-79
2022/08/13 03:16:28;;;;;;;17.40;16.13;;;;;;;21.47;69.17;100390.28;6065608;23;97978;-79
2022/08/13 03:18:54;;;;;;;17.25;16.15;;;;;;;21.52;68.78;100368.53;6041141;23;101438;-79
2022/08/13 03:21:24;;;;;;;17.38;16.05;;;;;;;21.63;68.65;100389.91;6016797;23;97072;-79
2022/08/13 03:23:51;;;;;;;16.40;15.02;;;;;;;21.70;67.86;100377.78;6040648;23;96850;-79
2022/08/13 03:26:18;;;;;;;16.08;14.90;;;;;;;21.74;68.05;100373.88;6015618;23;100987;-79
2022/08/13 03:28:44;;;;;;;17.25;15.90;;;;;;;21.74;68.25;100373.03;6041006;23;97412;-79
2022/08/13 03:31:09;;;;;;;17.98;16.67;;;;;;;21.61;69.13;100384.72;6040026;23;96656;-81
2022/08/13 03:33:36;;;;;;;17.20;16.00;;;;;;;21.63;68.95;100380.06;6040887;23;96833;-80
2022/08/13 03:36:02;;;;;;;17.90;16.60;;;;;;;21.63;68.61;100369.41;6040797;23;98752;-79
2022/08/13 03:38:27;;;;;;;18.48;17.08;;;;;;;21.66;68.52;100379.84;6040097;23;101494;-79
2022/08/13 03:41:02;;;;;;;18.15;16.77;;;;;;;21.73;67.74;100374.00;6016689;23;96935;-79
2022/08/13 03:43:30;;;;;;;18.48;17.00;;;;;;;21.54;68.54;100367.47;6042186;23;97134;-80
2022/08/13 03:45:57;;;;;;;16.70;15.48;;;;;;;21.62;68.62;100380.22;6040790;23;100493;-78
2022/08/13 03:48:24;;;;;;;17.90;16.60;;;;;;;21.65;68.33;100372.81;6040012;23;101444;-79
2022/08/13 03:50:50;;;;;;;17.83;16.63;;;;;;;21.58;68.79;100382.25;6040975;23;96705;-79
2022/08/13 03:53:17;;;;;;;18.45;16.92;;;;;;;21.58;68.62;100376.91;6016326;23;97120;-79
2022/08/13 03:55:43;;;;;;;16.85;15.63;;;;;;;21.58;67.92;100365.38;6064720;23;97412;-78
2022/08/13 03:58:10;;;;;;;18.05;16.50;;;;;;;21.64;68.46;100372.91;6064092;23;97276;-79
2022/08/13 04:00:39;;;;;;;16.45;15.25;;;;;;;21.63;68.52;100381.91;6016267;23;97036;-79
2022/08/13 04:03:14;;;;;;;16.35;15.15;;;;;;;21.60;68.76;100376.81;6040524;23;97044;-80
2022/08/13 04:05:39;;;;;;;17.35;16.10;;;;;;;21.59;68.59;100370.63;6040664;23;101188;-79
2022/08/13 04:08:05;;;;;;;17.92;16.52;;;;;;;21.55;68.23;100354.94;6039737;23;97240;-80
2022/08/13 04:10:31;;;;;;;17.60;16.30;;;;;;;21.72;67.90;100370.47;6040782;23;96641;-79
2022/08/13 04:12:56;;;;;;;17.65;16.30;;;;;;;21.71;68.15;100352.75;6016013;23;96945;-79
2022/08/13 04:15:22;;;;;;;17.05;15.95;;;;;;;21.73;67.99;100360.63;6040609;23;97582;-79
2022/08/13 04:17:47;;;;;;;17.50;16.30;;;;;;;21.65;67.99;100351.44;6041843;23;101576;-79
2022/08/13 04:20:13;;;;;;;18.25;16.95;;;;;;;21.72;68.40;100367.81;6015771;23;96649;-81
2022/08/13 04:22:38;;;;;;;16.90;15.70;;;;;;;21.75;67.93;100356.88;6041195;23;96916;-79
2022/08/13 04:25:05;;;;;;;19.23;17.55;;;;;;;21.65;68.44;100347.91;6015079;23;101526;-78
2022/08/13 04:27:34;;;;;;;18.33;16.92;;;;;;;21.62;69.21;100364.19;6015862;23;101550;-78
2022/08/13 04:30:02;;;;;;;18.73;17.00;;;;;;;21.59;69.18;100353.75;6039551;23;97073;-81
2022/08/13 04:32:27;;;;;;;17.65;16.45;;;;;;;21.64;69.08;100364.91;6064329;23;96949;-78
2022/08/13 04:34:57;;;;;;;18.42;16.85;;;;;;;21.64;68.93;100349.75;6065543;23;99249;-78
2022/08/13 04:37:22;;;;;;;18.35;16.95;;;;;;;21.66;68.88;100352.28;6040681;23;97421;-79
2022/08/13 04:39:54;;;;;;;18.70;17.40;;;;;;;21.68;68.80;100355.69;6017425;23;96680;-79
2022/08/13 04:42:20;;;;;;;18.80;17.42;;;;;;;21.68;68.85;100358.34;6040471;23;96910;-79
2022/08/13 04:44:47;;;;;;;16.85;15.50;;;;;;;21.62;69.06;100356.19;6040536;23;99664;-78
2022/08/13 04:47:13;;;;;;;18.70;17.30;;;;;;;21.68;68.86;100359.19;6039570;23;101559;-80
2022/08/13 04:49:39;;;;;;;18.50;17.20;;;;;;;21.46;69.44;100341.34;6039910;23;96645;-79
2022/08/13 04:52:05;;;;;;;17.42;16.23;;;;;;;21.65;69.13;100359.44;6041196;23;96849;-78
2022/08/13 04:54:30;;;;;;;17.92;16.45;;;;;;;21.56;69.62;100360.19;6038814;23;101196;-79
2022/08/13 04:56:56;;;;;;;17.40;16.10;;;;;;;21.44;69.62;100355.81;6039715;23;100900;-79
2022/08/13 04:59:22;;;;;;;16.90;15.70;;;;;;;21.51;69.69;100361.50;6039599;23;97140;-82
2022/08/13 05:01:48;;;;;;;18.23;16.92;;;;;;;21.44;70.36;100364.66;6040599;23;96934;-79
2022/08/13 05:04:15;;;;;;;18.27;16.95;;;;;;;21.43;70.50;100364.78;6015913;23;101265;-79
2022/08/13 05:06:41;;;;;;;17.70;16.50;;;;;;;21.31;70.90;100357.72;6040461;23;101195;-82
2022/08/13 05:09:07;;;;;;;18.35;17.00;;;;;;;21.37;71.02;100362.59;6064968;23;97221;-82
2022/08/13 05:11:32;;;;;;;12.00;11.18;;;;;;;21.35;70.73;100365.38;6040483;23;97185;-79
2022/08/13 05:13:58;;;;;;;7.93;7.15;;;;;;;21.35;71.07;100370.72;6064600;23;98053;-78
2022/08/13 05:16:23;;;;;;;7.03;6.32;;;;;;;21.34;71.00;100362.81;6040634;23;99648;-81
2022/08/13 05:18:54;;;;;;;7.38;6.45;;;;;;;21.25;71.25;100351.88;6017777;23;96726;-79
2022/08/13 05:21:23;;;;;;;7.82;7.07;;;;;;;21.28;71.25;100344.59;6040403;23;97002;-79
2022/08/13 05:23:53;;;;;;;7.80;6.60;;;;;;;21.39;71.22;100366.84;6040816;23;97783;-79
2022/08/13 05:26:21;;;;;;;7.55;6.80;;;;;;;21.23;71.83;100351.16;6040362;23;101163;-81
2022/08/13 05:28:48;;;;;;;7.78;6.78;;;;;;;21.28;72.00;100368.63;6041780;23;96707;-79
2022/08/13 05:31:13;;;;;;;8.18;7.20;;;;;;;21.27;71.95;100362.44;6041644;23;96734;-82
2022/08/13 05:33:38;;;;;;;7.38;6.68;;;;;;;21.20;72.63;100364.72;6066473;23;97918;-81
2022/08/13 05:36:05;;;;;;;7.95;6.95;;;;;;;21.17;73.06;100364.97;6041350;23;97553;-80
2022/08/13 05:38:31;;;;;;;9.07;7.70;;;;;;;21.21;72.69;100368.25;6039821;23;96715;-81
2022/08/13 05:41:07;;;;;;;7.22;6.13;;;;;;;21.16;72.90;100360.59;6065371;23;97236;-81
2022/08/13 05:43:37;;;;;;;9.18;6.60;;;;;;;21.20;72.84;100359.38;6040597;23;98530;-79
2022/08/13 05:46:09;;;;;;;8.60;7.70;;;;;;;21.19;73.49;100365.69;6017945;23;101510;-79
2022/08/13 05:48:37;;;;;;;8.02;6.97;;;;;;;21.34;72.99;100365.47;6040771;23;96612;-81
2022/08/13 05:51:05;;;;;;;8.63;6.80;;;;;;;21.33;73.10;100361.13;6041825;23;96952;-81
2022/08/13 05:53:35;;;;;;;7.72;7.03;;;;;;;21.40;72.70;100357.00;6015668;23;101099;-81
2022/08/13 05:56:02;;;;;;;9.77;7.55;;;;;;;21.33;73.15;100356.63;6065714;23;99830;-81
2022/08/13 05:58:28;;;;;;;9.10;8.25;;;;;;;21.27;73.33;100364.28;6040252;23;96782;-79
2022/08/13 06:03:38;;;;;;;9.60;8.70;;;;;;;21.29;73.49;100363.16;6065293;23;101400;-79
2022/08/13 06:06:06;;;;;;;8.48;7.68;;;;;;;21.35;73.29;100360.03;6017303;23;101277;-80
2022/08/13 06:08:35;;;;;;;11.32;9.98;;;;;;;21.27;73.45;100356.25;6040258;23;96669;-81
2022/08/13 06:11:05;;;;;;;9.82;8.85;;;;;;;21.20;73.24;100340.69;6040911;23;97225;-79
2022/08/13 06:13:33;;;;;;;9.45;8.52;;;;;;;21.29;73.64;100354.31;6040056;23;101118;-79
2022/08/13 06:15:58;;;;;;;11.50;10.40;;;;;;;21.24;73.91;100346.66;6041770;23;101258;-81
2022/08/13 06:18:29;;;;;;;10.38;9.48;;;;;;;21.21;74.28;100363.78;6015670;23;97242;-82
2022/08/13 06:20:55;;;;;;;10.07;9.18;;;;;;;21.20;74.17;100348.69;6040982;23;97004;-79
2022/08/13 06:23:23;;;;;;;12.82;10.52;;;;;;;21.21;74.03;100341.56;6039648;23;98666;-81
2022/08/13 06:25:51;;;;;;;10.10;9.20;;;;;;;21.28;74.08;100350.78;6040100;23;97508;-81
2022/08/13 06:28:22;;;;;;;10.10;9.20;;;;;;;21.24;74.13;100350.19;6064039;23;97109;-81
2022/08/13 06:30:49;;;;;;;10.68;9.57;;;;;;;21.39;73.79;100356.16;6016964;23;96698;-81
2022/08/13 06:33:20;;;;;;;10.27;9.27;;;;;;;21.33;74.49;100358.44;6040901;23;101296;-81
2022/08/13 06:35:46;;;;;;;10.60;9.55;;;;;;;21.34;74.28;100349.47;6041871;23;101447;-81
2022/08/13 06:38:12;;;;;;;11.43;10.02;;;;;;;21.27;74.67;100354.44;6017072;23;96639;-78
2022/08/13 06:40:39;;;;;;;12.82;10.07;;;;;;;21.23;74.72;100347.63;6041618;23;96946;-80
2022/08/13 06:43:05;;;;;;;11.02;9.95;;;;;;;21.24;74.61;100350.19;6042171;23;97462;-80
2022/08/13 06:45:30;;;;;;;11.52;9.90;;;;;;;21.23;74.73;100348.50;6040911;23;101241;-82
2022/08/13 06:47:58;;;;;;;11.45;10.35;;;;;;;21.22;74.32;100328.09;6064858;23;96767;-78
2022/08/13 06:50:23;;;;;;;12.20;10.98;;;;;;;21.32;74.31;100354.06;6016034;23;96910;-81
2022/08/13 06:52:49;;;;;;;12.90;10.75;;;;;;;21.30;74.83;100353.34;6038656;23;100651;-80
2022/08/13 06:55:15;;;;;;;10.88;9.88;;;;;;;21.45;74.42;100360.19;6014509;23;101704;-81
2022/08/13 06:57:41;;;;;;;11.50;10.35;;;;;;;21.33;74.61;100348.63;6040955;23;96684;-81
2022/08/13 07:00:10;;;;;;;11.15;10.00;;;;;;;21.51;74.31;100354.34;6040692;23;97021;-81
2022/08/13 07:02:37;;;;;;;11.63;10.52;;;;;;;21.45;74.25;100355.69;6039629;23;101170;-81
2022/08/13 07:05:04;;;;;;;11.80;10.70;;;;;;;21.42;74.91;100358.59;6016254;23;100990;-80
2022/08/13 07:07:31;;;;;;;11.60;10.48;;;;;;;21.46;74.64;100354.69;6064188;23;97065;-80
2022/08/13 07:09:58;;;;;;;13.30;12.10;;;;;;;21.56;74.11;100354.84;6063709;23;96846;-81
2022/08/13 07:12:24;;;;;;;12.13;10.98;;;;;;;21.59;74.27;100357.25;6038242;23;101306;-81
2022/08/13 07:14:49;;;;;;;12.48;11.27;;;;;;;21.54;74.41;100356.78;6039518;23;101863;-81
2022/08/13 07:17:15;;;;;;;11.88;10.82;;;;;;;21.66;74.31;100358.47;6063414;23;96634;-79
2022/08/13 07:19:42;;;;;;;13.10;11.90;;;;;;;21.64;73.85;100343.53;6016832;23;96710;-81
2022/08/13 07:22:07;;;;;;;12.43;11.23;;;;;;;21.73;73.73;100347.28;6040270;23;101007;-81
2022/08/13 07:24:33;;;;;;;13.25;11.85;;;;;;;21.75;73.90;100354.22;6039649;23;101378;-80
2022/08/13 07:27:04;;;;;;;12.43;11.23;;;;;;;21.77;74.08;100346.09;6039867;23;96686;-80
2022/08/13 07:29:32;;;;;;;13.85;12.55;;;;;;;21.78;73.32;100361.13;6062804;23;97526;-79
2022/08/13 07:32:01;;;;;;;13.63;12.25;;;;;;;21.61;73.78;100343.78;6039937;23;101286;-80
2022/08/13 07:34:28;;;;;;;12.45;11.25;;;;;;;21.75;73.82;100346.19;6039645;23;100866;-80
2022/08/13 07:36:56;;;;;;;13.43;12.23;;;;;;;21.77;73.62;100357.63;6040593;23;97092;-80
2022/08/13 07:39:22;;;;;;;14.27;12.73;;;;;;;21.63;73.75;100353.38;6063658;23;96887;-80
2022/08/13 07:41:48;;;;;;;13.25;12.05;;;;;;;21.66;74.07;100353.13;6064382;23;97716;-79
2022/08/13 07:44:21;;;;;;;15.00;13.60;;;;;;;21.76;73.73;100347.91;6013644;23;101065;-80
2022/08/13 07:46:48;;;;;;;14.18;12.15;;;;;;;21.79;73.67;100352.16;6039618;23;97150;-80
2022/08/13 07:49:14;;;;;;;13.93;12.68;;;;;;;21.80;73.57;100344.00;6016479;23;96848;-80
2022/08/13 07:51:43;;;;;;;14.23;12.82;;;;;;;21.81;73.65;100359.06;6039573;23;101052;-81
2022/08/13 07:54:09;;;;;;;15.07;13.57;;;;;;;21.89;73.24;100358.44;6016083;23;99346;-79
2022/08/13 07:56:35;;;;;;;14.98;13.45;;;;;;;21.84;73.38;100352.63;6015805;23;96595;-80
2022/08/13 07:59:03;;;;;;;14.00;12.63;;;;;;;21.82;73.30;100362.59;6016972;23;96949;-79
2022/08/13 08:01:30;;;;;;;14.60;13.18;;;;;;;21.73;73.47;100344.63;6062258;23;97425;-81
2022/08/13 08:04:00;;;;;;;15.50;12.55;;;;;;;21.73;73.42;100347.28;6015126;23;101131;-80
2022/08/13 08:06:25;;;;;;;14.65;13.05;;;;;;;21.73;73.59;100357.97;6039467;23;96969;-80
2022/08/13 08:08:54;;;;;;;14.25;12.88;;;;;;;21.70;73.61;100343.06;6041485;23;97074;-79
2022/08/13 08:14:09;;;;;;;14.00;12.65;;;;;;;21.73;74.11;100366.84;6065284;23;101763;-79
2022/08/13 08:16:36;;;;;;;14.40;12.88;;;;;;;21.69;74.00;100358.22;6016378;23;97090;-80
2022/08/13 08:19:03;;;;;;;14.65;12.70;;;;;;;21.79;73.44;100365.53;6063252;23;96850;-85
2022/08/13 08:21:29;;;;;;;14.18;12.32;;;;;;;21.77;73.71;100370.97;6040887;23;101691;-86
2022/08/13 08:23:59;;;;;;;15.43;14.00;;;;;;;21.70;73.68;100362.59;6017708;23;101113;-88
2022/08/13 08:26:26;;;;;;;14.77;13.27;;;;;;;21.63;74.11;100356.03;6041997;23;97049;-89
2022/08/13 08:28:55;;;;;;;14.40;13.07;;;;;;;21.70;74.51;100373.28;6041834;23;96913;-88
2022/08/13 08:31:21;;;;;;;18.90;14.32;;;;;;;21.75;74.67;100378.25;6040320;23;100918;-85
2022/08/13 08:33:47;;;;;;;16.98;13.77;;;;;;;21.75;75.01;100382.75;6041351;23;97944;-81
2022/08/13 08:36:13;;;;;;;18.23;14.13;;;;;;;21.70;74.99;100375.97;6036955;23;96975;-85
2022/08/13 08:44:23;;;;;;;15.27;13.77;;;;;;;21.73;75.52;100384.69;6065146;23;97308;-85
2022/08/13 08:46:56;;;;;;;15.60;14.10;;;;;;;21.73;75.66;100376.66;6061650;23;97208;-85
2022/08/13 08:49:23;;;;;;;15.93;14.23;;;;;;;21.73;75.79;100380.22;6038762;23;97316;-86
2022/08/13 08:51:50;;;;;;;15.68;14.18;;;;;;;21.70;75.61;100381.31;6034039;23;101162;-83
2022/08/13 08:54:17;;;;;;;16.63;15.02;;;;;;;21.74;76.04;100381.91;6034551;23;100436;-85
2022/08/13 08:56:45;;;;;;;15.50;14.10;;;;;;;21.72;75.80;100385.66;6061511;23;97166;-81
2022/08/13 08:59:12;;;;;;;17.05;15.27;;;;;;;21.56;76.03;100378.88;6037554;23;97291;-82
2022/08/13 09:01:37;;;;;;;15.32;13.93;;;;;;;21.58;76.54;100382.25;6061533;23;98227;-84
2022/08/13 09:04:05;;;;;;;14.93;13.55;;;;;;;21.66;76.07;100379.00;6037091;23;101404;-83
2022/08/13 09:06:31;;;;;;;15.70;13.90;;;;;;;21.67;76.12;100376.22;6036676;23;97168;-84
2022/08/13 09:08:59;;;;;;;14.68;13.25;;;;;;;21.67;76.06;100372.66;6038480;23;98405;-85
2022/08/13 09:11:29;;;;;;;14.70;13.40;;;;;;;21.74;76.15;100375.72;6036676;23;101489;-78
2022/08/13 09:13:55;;;;;;;14.95;13.60;;;;;;;21.77;76.40;100370.97;6036746;23;101659;-80
2022/08/13 09:16:21;;;;;;;15.38;13.30;;;;;;;21.84;76.38;100366.81;6038271;23;96671;-80
2022/08/13 09:18:48;;;;;;;14.43;13.13;;;;;;;21.89;75.81;100364.63;6040106;23;96629;-84
2022/08/13 09:21:15;;;;;;;15.57;14.07;;;;;;;21.98;76.00;100368.38;6013658;23;101041;-82
2022/08/13 09:23:45;;;;;;;16.95;15.45;;;;;;;21.93;75.83;100359.88;6063401;23;98252;-82
2022/08/13 09:26:12;;;;;;;14.93;13.43;;;;;;;22.06;75.74;100359.75;6014817;23;97031;-82
2022/08/13 09:28:39;;;;;;;15.35;13.68;;;;;;;22.16;75.39;100366.03;6039683;23;96892;-84
2022/08/13 09:31:06;;;;;;;13.88;12.48;;;;;;;22.20;75.25;100359.50;6039156;23;100979;-83
2022/08/13 09:33:38;;;;;;;14.15;12.82;;;;;;;22.35;74.86;100363.59;6012441;23;100564;-84
2022/08/13 09:36:09;;;;;;;14.40;13.10;;;;;;;22.66;74.08;100363.72;6035409;23;97024;-85
2022/08/13 09:38:35;;;;;;;15.65;14.15;;;;;;;22.88;73.39;100357.38;6037104;23;97263;-86
2022/08/13 09:41:15;;;;;;;15.07;13.65;;;;;;;22.87;73.10;100360.22;6062781;23;98388;-89
2022/08/13 09:43:41;;;;;;;14.95;13.30;;;;;;;23.00;72.59;100366.22;6033863;23;101874;-83
2022/08/13 09:46:08;;;;;;;13.98;12.70;;;;;;;22.91;72.93;100358.97;6036589;23;97341;-86
2022/08/13 09:48:33;;;;;;;14.10;12.02;;;;;;;22.88;72.32;100359.22;6036672;23;97389;-84
2022/08/13 09:51:02;;;;;;;15.05;13.57;;;;;;;22.95;72.74;100355.06;6035546;23;100886;-84
2022/08/13 09:53:28;;;;;;;14.57;13.25;;;;;;;22.96;73.19;100356.78;6013443;23;101304;-90
2022/08/13 09:55:54;;;;;;;15.75;13.35;;;;;;;22.86;73.59;100355.81;6039432;23;97907;-87
2022/08/13 09:58:22;;;;;;;13.73;12.43;;;;;;;22.70;73.22;100348.25;6014203;23;97204;-86
2022/08/13 10:00:48;;;;;;;13.65;12.45;;;;;;;22.63;73.73;100355.94;6039696;23;101762;-87
2022/08/13 10:03:17;;;;;;;13.43;12.23;;;;;;;22.44;74.39;100343.25;6040526;23;99012;-86
2022/08/13 10:05:46;;;;;;;12.23;11.23;;;;;;;22.45;74.42;100358.31;6066523;23;97140;-86
2022/08/13 10:08:17;;;;;;;13.95;12.63;;;;;;;22.49;74.31;100356.25;6014880;23;97282;-83
2022/08/13 10:10:44;;;;;;;13.40;12.10;;;;;;;22.49;73.90;100356.25;6031887;23;99862;-81
2022/08/13 10:13:10;;;;;;;11.50;10.40;;;;;;;22.60;73.53;100351.69;6011996;23;100542;-82
2022/08/13 10:15:37;;;;;;;12.18;11.07;;;;;;;22.93;73.11;100346.31;6036980;23;97326;-82
2022/08/13 10:18:03;;;;;;;12.38;11.27;;;;;;;23.08;72.60;100355.72;6038121;23;97320;-82
2022/08/13 10:20:36;;;;;;;14.18;12.82;;;;;;;23.19;72.27;100328.03;6060609;23;97344;-83
2022/08/13 10:23:04;;;;;;;15.75;11.95;;;;;;;23.54;71.67;100349.03;6036605;23;100640;-84
2022/08/13 10:25:30;;;;;;;12.20;11.05;;;;;;;23.95;70.17;100348.06;6057737;23;97132;-82
2022/08/13 10:27:56;;;;;;;12.55;11.43;;;;;;;24.35;69.18;100347.16;6037118;23;96988;-82
2022/08/13 10:30:24;;;;;;;12.38;11.18;;;;;;;24.56;67.92;100348.88;6060786;23;97526;-81
2022/08/13 10:32:50;;;;;;;11.93;10.70;;;;;;;24.80;67.33;100348.41;6036448;23;101446;-83
2022/08/13 10:35:19;;;;;;;13.43;10.70;;;;;;;24.85;66.55;100336.25;6011312;23;96884;-82
2022/08/13 10:37:47;;;;;;;12.05;10.98;;;;;;;24.76;66.28;100345.19;6036677;23;97514;-83
2022/08/13 10:40:16;;;;;;;11.90;10.68;;;;;;;24.54;67.31;100329.38;6034577;23;100671;-82
2022/08/13 10:42:44;;;;;;;11.77;10.60;;;;;;;24.34;68.49;100328.50;6034555;23;101276;-82
2022/08/13 10:45:13;;;;;;;12.07;10.98;;;;;;;24.22;69.78;100333.16;6035702;23;96802;-81
2022/08/13 10:47:50;;;;;;;11.60;10.40;;;;;;;24.07;69.61;100329.19;6036044;23;97085;-85
2022/08/13 10:50:20;;;;;;;13.23;11.15;;;;;;;23.85;69.87;100331.13;6013025;23;101300;-83
2022/08/13 10:52:46;;;;;;;10.77;9.75;;;;;;;23.73;70.07;100306.25;6037623;23;98838;-82
2022/08/13 10:55:13;;;;;;;11.68;10.55;;;;;;;23.86;69.90;100311.38;6062227;23;97188;-84
2022/08/13 10:57:40;;;;;;;12.15;10.90;;;;;;;24.07;69.43;100323.81;6038126;23;97040;-86
2022/08/13 11:00:08;;;;;;;12.32;11.23;;;;;;;24.27;68.44;100325.53;6037449;23;101411;-82
2022/08/13 11:02:33;;;;;;;12.02;11.00;;;;;;;24.53;67.63;100317.81;6036256;23;97418;-82
2022/08/13 11:05:00;;;;;;;12.05;10.95;;;;;;;24.65;67.46;100302.41;6035672;23;96844;-82
2022/08/13 11:07:26;;;;;;;12.15;11.05;;;;;;;24.70;67.61;100302.81;6035938;23;97098;-81
2022/08/13 11:09:51;;;;;;;9.90;9.07;;;;;;;24.68;67.88;100299.41;6009487;23;99946;-81
2022/08/13 11:12:18;;;;;;;9.63;8.73;;;;;;;24.55;67.73;100285.44;6037914;23;97433;-82
2022/08/13 11:14:45;;;;;;;12.52;9.52;;;;;;;24.46;67.11;100289.00;6061714;23;97152;-84
2022/08/13 11:17:11;;;;;;;9.68;8.77;;;;;;;24.38;67.12;100273.59;6038892;23;96950;-83
2022/08/13 11:19:40;;;;;;;10.63;9.65;;;;;;;24.26;66.55;100274.72;6012051;23;101035;-80
2022/08/13 11:22:06;;;;;;;11.82;9.75;;;;;;;24.07;66.36;100273.72;6035373;23;100885;-80
2022/08/13 11:24:31;;;;;;;10.18;9.15;;;;;;;24.19;66.68;100293.22;6056552;23;97267;-83
2022/08/13 11:26:57;;;;;;;9.77;8.88;;;;;;;24.29;66.31;100290.50;6036016;23;97269;-80
2022/08/13 11:29:22;;;;;;;11.43;9.75;;;;;;;24.45;66.61;100276.56;6060421;23;97974;-81